Погода Даго-де-Никарагуана 2 недели

Рива, Никарагуа

03 - 15 марта
  • 03марта
    Сегодня
    +24°
    +31°
    Ясно и безоблачно
    ВремяПогодаТемператураВлажностьДавлениеВетер, м/сВероятность осадков
    00:00Практически безоблачно+25°C84 %755 мм6.8 м/с3 %
    03:00Практически безоблачно+25°C89 %754 мм6.5 м/с4 %
    06:00Практически безоблачно+24°C88 %755 мм5.9 м/с6 %
    09:00Практически безоблачно+26°C80 %756 мм5.5 м/с11 %
    12:00Ясно и безоблачно+29°C66 %755 мм4.3 м/с13 %
    15:00Ясно и безоблачно+31°C62 %752 мм4.3 м/с7 %
    18:00Ясно и безоблачно+29°C64 %752 мм4.7 м/с2 %
    21:00Ясно и безоблачно+27°C73 %754 мм6.3 м/с4 %
  • 04марта
    Понедельник
    +24°
    +31°
    Ясно и безоблачно
    ВремяПогодаТемператураВлажностьДавлениеВетер, м/сВероятность осадков
    00:00Ясно и безоблачно+25°C84 %754 мм6.7 м/с2 %
    03:00Практически безоблачно+25°C88 %753 мм5.7 м/с12 %
    06:00Практически безоблачно+24°C91 %755 мм5.5 м/с21 %
    09:00Практически безоблачно+26°C83 %756 мм6.1 м/с29 %
    12:00Ясно и безоблачно+29°C67 %754 мм3.6 м/с11 %
    15:00Ясно и безоблачно+31°C61 %751 мм3.1 м/с2 %
    18:00Ясно и безоблачно+29°C65 %751 мм2.9 м/с2 %
    21:00Ясно и безоблачно+27°C71 %753 мм6.9 м/с2 %
  • 05марта
    Вторник
    +24°
    +31°
    Ясно и безоблачно
    ВремяПогодаТемператураВлажностьДавлениеВетер, м/сВероятность осадков
    00:00Ясно и безоблачно+25°C82 %753 мм6.2 м/с2 %
    03:00Ясно и безоблачно+25°C87 %752 мм5.1 м/с15 %
    06:00Практически безоблачно+24°C91 %754 мм5.0 м/с27 %
    09:00Практически безоблачно+26°C81 %755 мм5.7 м/с25 %
    12:00Ясно и безоблачно+29°C66 %753 мм3.6 м/с9 %
    15:00Ясно и безоблачно+31°C56 %750 мм2.5 м/с2 %
    18:00Ясно и безоблачно+30°C60 %750 мм2.1 м/с2 %
    21:00Ясно и безоблачно+27°C72 %753 мм6.1 м/с2 %
  • 06марта
    Среда
    +23°
    +32°
    Небольшая облачность
    ВремяПогодаТемператураВлажностьДавлениеВетер, м/сВероятность осадков
    00:00Ясно и безоблачно+25°C83 %753 мм5.9 м/с5 %
    03:00Практически безоблачно+25°C85 %752 мм5.6 м/с30 %
    06:00Небольшая облачность+24°C87 %753 мм5.0 м/с48 %
    09:00Практически безоблачно+26°C80 %755 мм5.0 м/с42 %
    12:00Ясно и безоблачно+29°C68 %753 мм3.1 м/с17 %
    15:00Небольшая облачность+31°C54 %750 мм2.2 м/с2 %
    18:00Ясно и безоблачно+29°C61 %751 мм2.2 м/с2 %
    21:00Ясно и безоблачно+28°C72 %752 мм6.5 м/с2 %
Мы используем cookies
Соглашаюсь